Time;durP1;ratioP1;P1;durP2;ratioP2;P2;SDS_P1;SDS_P2;PMS_P1;PMS_P2;Temp;Humidity;BMP_temperature;BMP_pressure;BME280_temperature;BME280_humidity;BME280_pressure;Samples;Min_cycle;Max_cycle;Signal;HPM_P1;HPM_P2
2021/08/18 00:01:08;;;;;;;8.15;2.65;;;;;;;15.52;87.12;101749.81;5012174;28;20091;-66
2021/08/18 00:03:34;;;;;;;6.93;2.90;;;;;;;15.54;87.23;101742.59;5011556;28;20037;-67
2021/08/18 00:05:59;;;;;;;4.25;2.63;;;;;;;15.52;87.38;101751.63;5011467;28;20107;-67
2021/08/18 00:08:24;;;;;;;8.35;3.03;;;;;;;15.52;87.69;101747.13;5012149;28;20125;-66
2021/08/18 00:10:50;;;;;;;10.77;2.80;;;;;;;15.51;87.67;101741.88;5011839;28;20427;-66
2021/08/18 00:13:16;;;;;;;5.78;3.13;;;;;;;15.49;87.33;101747.31;5011531;28;20034;-66
2021/08/18 00:15:42;;;;;;;8.45;3.00;;;;;;;15.49;87.37;101743.78;5011290;28;20037;-66
2021/08/18 00:18:08;;;;;;;11.80;3.05;;;;;;;15.51;87.48;101752.56;5011200;28;20091;-66
2021/08/18 00:20:34;;;;;;;4.50;2.88;;;;;;;15.53;87.15;101743.53;5013742;28;20041;-67
2021/08/18 00:22:59;;;;;;;8.23;2.58;;;;;;;15.50;87.28;101746.38;5020390;28;20144;-66
2021/08/18 00:25:26;;;;;;;7.57;3.00;;;;;;;15.52;87.51;101746.28;5030795;28;20034;-66
2021/08/18 00:27:53;;;;;;;9.32;2.90;;;;;;;15.52;87.01;101739.13;5030674;28;20051;-67
2021/08/18 00:30:18;;;;;;;8.38;2.85;;;;;;;15.55;87.22;101741.66;5028615;28;20080;-67
2021/08/18 00:32:43;;;;;;;7.57;2.90;;;;;;;15.54;87.29;101739.09;5029467;28;20065;-66
2021/08/18 00:35:10;;;;;;;6.85;2.75;;;;;;;15.53;87.22;101742.69;5030333;28;20033;-65
2021/08/18 00:37:36;;;;;;;7.40;2.72;;;;;;;15.54;87.17;101739.94;5030903;28;20029;-67
2021/08/18 00:40:01;;;;;;;7.03;2.90;;;;;;;15.56;87.25;101737.19;5029758;28;20036;-67
2021/08/18 00:42:27;;;;;;;5.03;2.60;;;;;;;15.54;87.74;101737.25;5019703;28;20033;-66
2021/08/18 00:44:54;;;;;;;7.93;3.00;;;;;;;15.54;87.49;101737.25;5010842;28;20033;-66
2021/08/18 00:47:19;;;;;;;6.53;3.15;;;;;;;15.55;87.71;101738.16;5011181;28;20399;-67
2021/08/18 00:49:44;;;;;;;8.15;3.42;;;;;;;15.54;87.87;101734.59;5010988;28;20499;-67
2021/08/18 00:52:10;;;;;;;9.27;3.22;;;;;;;15.53;88.00;101727.53;5012506;28;20026;-66
2021/08/18 00:54:35;;;;;;;8.27;3.00;;;;;;;15.56;88.04;101742.50;5010426;28;20064;-67
2021/08/18 00:57:02;;;;;;;6.25;2.85;;;;;;;15.54;88.07;101739.94;5010854;28;20437;-66
2021/08/18 00:59:30;;;;;;;6.47;3.20;;;;;;;15.54;87.89;101728.41;5009939;28;20084;-67
2021/08/18 01:01:56;;;;;;;6.20;2.80;;;;;;;15.56;87.98;101742.50;5011524;28;20037;-66
2021/08/18 01:04:21;;;;;;;4.97;2.65;;;;;;;15.54;88.18;101733.75;5011027;28;20030;-67
2021/08/18 01:06:47;;;;;;;7.15;2.80;;;;;;;15.54;87.71;101728.41;5010259;28;20125;-66
2021/08/18 01:09:18;;;;;;;11.43;3.05;;;;;;;15.51;87.70;101731.22;5009975;28;20068;-67
2021/08/18 01:11:45;;;;;;;6.07;2.73;;;;;;;15.54;88.22;101728.41;5011715;28;20543;-66
2021/08/18 01:14:12;;;;;;;6.13;2.88;;;;;;;15.54;87.42;101731.91;5023257;28;20292;-67
2021/08/18 01:16:40;;;;;;;8.27;2.70;;;;;;;15.54;87.72;101736.41;5027697;28;20094;-66
2021/08/18 01:19:08;;;;;;;6.43;2.60;;;;;;;15.55;87.46;101732.81;5028950;28;20033;-66
2021/08/18 01:21:35;;;;;;;6.18;2.38;;;;;;;15.61;87.03;101731.63;5029103;28;20021;-66
2021/08/18 01:24:03;;;;;;;5.72;3.00;;;;;;;15.59;87.26;101737.03;5020592;28;20033;-66
2021/08/18 01:26:30;;;;;;;4.57;2.55;;;;;;;15.57;87.32;101730.91;5009921;28;20030;-67
2021/08/18 01:28:56;;;;;;;6.38;3.03;;;;;;;15.56;87.42;101737.19;5026936;28;20051;-67
2021/08/18 01:31:22;;;;;;;9.15;2.80;;;;;;;15.55;86.99;101741.66;5029411;28;20029;-66
2021/08/18 01:33:47;;;;;;;7.95;2.78;;;;;;;15.57;87.24;101733.56;5027758;28;20040;-66
2021/08/18 01:36:12;;;;;;;5.00;2.40;;;;;;;15.55;87.07;101724.81;5027841;28;20044;-66
2021/08/18 01:38:38;;;;;;;8.07;3.08;;;;;;;15.60;87.35;101736.09;5024568;28;20458;-67
2021/08/18 01:41:04;;;;;;;7.60;2.70;;;;;;;15.59;87.08;101737.03;5029745;28;20029;-67
2021/08/18 01:43:29;;;;;;;5.40;2.85;;;;;;;15.62;87.20;101733.34;5027510;28;20032;-66
2021/08/18 01:45:54;;;;;;;5.93;2.70;;;;;;;15.62;87.57;101741.34;5027918;28;20045;-68
2021/08/18 01:48:23;;;;;;;4.95;2.80;;;;;;;15.60;87.00;101730.75;5029443;28;20064;-68
2021/08/18 01:50:51;;;;;;;5.97;2.45;;;;;;;15.61;87.08;101726.28;5028970;28;20082;-66
2021/08/18 01:53:28;;;;;;;5.53;2.80;;;;;;;15.64;87.27;101732.31;5029171;28;20085;-66
2021/08/18 01:56:04;;;;;;;4.97;2.70;;;;;;;15.66;86.99;101726.91;5016864;28;20058;-65
2021/08/18 01:58:33;;;;;;;4.15;2.30;;;;;;;15.65;87.19;101725.16;5026433;28;20332;-66
2021/08/18 02:00:59;;;;;;;6.53;2.58;;;;;;;15.58;86.93;101719.28;5028979;28;20017;-67
2021/08/18 02:03:24;;;;;;;6.75;2.80;;;;;;;15.58;86.92;101724.63;5029413;28;20467;-66
2021/08/18 02:05:49;;;;;;;6.55;2.60;;;;;;;15.56;87.25;101726.50;5016391;28;20041;-67
2021/08/18 02:08:15;;;;;;;11.18;3.00;;;;;;;15.53;87.38;101726.66;5009595;28;20033;-66
2021/08/18 02:10:41;;;;;;;6.20;3.03;;;;;;;15.54;87.16;101731.91;5009415;28;20045;-67
2021/08/18 02:13:06;;;;;;;8.00;2.67;;;;;;;15.54;86.89;101723.06;5009603;28;20183;-66
2021/08/18 02:15:33;;;;;;;5.68;2.40;;;;;;;15.54;86.65;101726.59;5011652;28;20022;-67
2021/08/18 02:18:00;;;;;;;6.97;2.78;;;;;;;15.53;87.31;101727.53;5029048;28;20040;-67
2021/08/18 02:20:30;;;;;;;6.63;2.72;;;;;;;15.52;87.64;101732.94;5029005;28;20056;-67
2021/08/18 02:22:56;;;;;;;7.88;2.70;;;;;;;15.49;87.21;101733.13;5028743;28;20111;-66
2021/08/18 02:25:22;;;;;;;4.88;2.20;;;;;;;15.47;87.04;101726.97;5028709;28;20360;-66
2021/08/18 02:27:48;;;;;;;3.72;2.30;;;;;;;15.48;87.57;101726.03;5014718;28;20074;-65
2021/08/18 02:30:16;;;;;;;5.05;2.50;;;;;;;15.47;87.25;101724.31;5020644;28;20128;-67
2021/08/18 02:32:42;;;;;;;4.38;2.25;;;;;;;15.48;87.58;101723.38;5019460;28;20033;-66
2021/08/18 02:35:09;;;;;;;8.02;2.72;;;;;;;15.47;87.29;101719.81;5028813;28;20021;-68
2021/08/18 02:37:35;;;;;;;7.43;2.45;;;;;;;15.46;87.20;101723.47;5026785;28;20033;-67
2021/08/18 02:40:01;;;;;;;4.18;2.40;;;;;;;15.45;87.63;101723.50;5028563;28;20025;-66
2021/08/18 02:42:27;;;;;;;5.07;2.10;;;;;;;15.44;87.65;101721.81;5029216;28;20040;-67
2021/08/18 02:44:52;;;;;;;5.05;2.15;;;;;;;15.43;87.98;101722.75;5028270;28;20025;-67
2021/08/18 02:47:17;;;;;;;6.03;2.40;;;;;;;15.44;87.98;101712.00;5025261;28;20506;-66
2021/08/18 02:49:43;;;;;;;5.75;2.30;;;;;;;15.46;87.54;101714.56;5028687;28;20140;-66
2021/08/18 02:52:09;;;;;;;4.45;2.22;;;;;;;15.45;87.50;101711.06;5029231;28;20065;-66
2021/08/18 02:54:34;;;;;;;8.88;2.67;;;;;;;15.45;87.96;101716.38;5028876;28;20109;-67
2021/08/18 02:57:00;;;;;;;5.07;2.25;;;;;;;15.49;87.40;101712.63;5027089;28;20101;-66
2021/08/18 02:59:26;;;;;;;9.45;2.42;;;;;;;15.46;87.91;101710.13;5030800;28;20104;-68
2021/08/18 03:01:51;;;;;;;7.50;2.47;;;;;;;15.47;87.72;101718.97;5032142;28;20099;-67
2021/08/18 03:04:16;;;;;;;4.63;2.40;;;;;;;15.46;87.38;101723.47;5032090;28;20434;-66
2021/08/18 03:06:42;;;;;;;7.50;2.25;;;;;;;15.47;87.62;101724.31;5032421;28;20028;-67
2021/08/18 03:09:07;;;;;;;6.40;2.30;;;;;;;15.46;87.33;101718.13;5028626;28;20033;-66
2021/08/18 03:11:32;;;;;;;5.07;2.70;;;;;;;15.47;87.12;101716.31;5032141;28;20063;-66
2021/08/18 03:13:58;;;;;;;5.05;2.65;;;;;;;15.47;87.07;101722.50;5032060;28;20524;-66
2021/08/18 03:16:23;;;;;;;5.60;2.28;;;;;;;15.49;87.09;101728.63;5031396;28;20391;-66
2021/08/18 03:18:48;;;;;;;6.82;2.38;;;;;;;15.50;86.98;101719.69;5028750;28;20033;-66
2021/08/18 03:21:14;;;;;;;4.53;2.65;;;;;;;15.51;86.99;101720.53;5031194;28;20030;-66
2021/08/18 03:23:39;;;;;;;7.07;2.47;;;;;;;15.51;87.29;101720.53;5031579;28;20022;-66
2021/08/18 03:26:04;;;;;;;7.05;2.47;;;;;;;15.54;87.19;101723.06;5031159;28;20029;-66
2021/08/18 03:28:30;;;;;;;5.28;2.70;;;;;;;15.60;86.43;101727.22;5030005;28;20144;-66
2021/08/18 03:30:55;;;;;;;6.55;2.50;;;;;;;15.59;86.29;101723.69;5029562;28;20103;-66
2021/08/18 03:33:20;;;;;;;5.22;2.63;;;;;;;15.58;86.37;101727.28;5030453;28;20091;-66
2021/08/18 03:35:46;;;;;;;4.75;2.40;;;;;;;15.56;85.97;101721.16;5031347;28;20367;-66
2021/08/18 03:38:11;;;;;;;5.05;2.65;;;;;;;15.53;86.36;101711.50;5031410;28;20482;-65
2021/08/18 03:40:37;;;;;;;6.78;2.40;;;;;;;15.53;86.21;101718.66;5027746;28;20467;-67
2021/08/18 03:43:04;;;;;;;4.53;2.70;;;;;;;15.54;86.63;101720.41;5031196;28;20100;-67
2021/08/18 03:45:29;;;;;;;6.13;2.78;;;;;;;15.51;86.29;101715.19;5030820;28;20026;-66
2021/08/18 03:47:55;;;;;;;6.13;2.80;;;;;;;15.51;86.66;101716.06;5031082;28;20121;-66
2021/08/18 03:50:20;;;;;;;8.95;2.95;;;;;;;15.49;86.88;101709.09;5029372;28;20442;-66
2021/08/18 03:52:46;;;;;;;6.10;2.67;;;;;;;15.46;86.92;101717.25;5030033;28;20048;-68
2021/08/18 03:55:12;;;;;;;8.45;2.92;;;;;;;15.42;87.12;101719.19;5031913;28;20033;-66
2021/08/18 03:57:38;;;;;;;8.52;3.17;;;;;;;15.40;87.65;101721.09;5032236;28;20054;-66
2021/08/18 04:00:08;;;;;;;5.85;2.75;;;;;;;15.37;87.64;101719.44;5031291;28;20317;-67
2021/08/18 04:02:33;;;;;;;4.50;2.53;;;;;;;15.32;87.90;101718.81;5030102;28;20056;-67
2021/08/18 04:04:58;;;;;;;7.32;3.00;;;;;;;15.27;87.87;101719.97;5032113;28;20502;-67
2021/08/18 04:07:24;;;;;;;5.28;2.70;;;;;;;15.25;88.17;101709.38;5031923;28;20036;-67
2021/08/18 04:09:49;;;;;;;9.73;2.80;;;;;;;15.26;88.76;101718.28;5030123;28;20106;-66
2021/08/18 04:12:14;;;;;;;5.75;2.78;;;;;;;15.27;88.58;101717.31;5028495;28;20494;-66
2021/08/18 04:14:39;;;;;;;5.45;2.90;;;;;;;15.25;88.73;101717.41;5031798;28;20072;-68
2021/08/18 04:17:05;;;;;;;5.53;2.90;;;;;;;15.26;88.38;101710.28;5031610;28;20079;-68
2021/08/18 04:19:30;;;;;;;9.07;3.33;;;;;;;15.27;88.94;101714.66;5031813;28;20313;-67
2021/08/18 04:21:55;;;;;;;7.72;2.95;;;;;;;15.27;89.02;101714.66;5029951;28;20026;-67
2021/08/18 04:24:21;;;;;;;4.72;2.72;;;;;;;15.31;88.68;101710.91;5029710;28;20036;-66
2021/08/18 04:26:46;;;;;;;5.60;2.67;;;;;;;15.32;88.78;101715.28;5031581;28;20052;-67
2021/08/18 04:29:11;;;;;;;8.02;3.05;;;;;;;15.39;88.28;101719.38;5019602;28;20037;-67
2021/08/18 04:31:37;;;;;;;5.70;2.78;;;;;;;15.38;88.51;101707.84;5017282;28;20033;-64
2021/08/18 04:34:02;;;;;;;7.93;3.25;;;;;;;15.43;88.47;101723.59;5029082;28;20056;-66
2021/08/18 04:36:28;;;;;;;8.93;3.28;;;;;;;15.42;88.23;101711.19;5022153;28;20380;-66
2021/08/18 04:38:53;;;;;;;7.28;2.92;;;;;;;15.44;88.44;101713.81;5011411;28;20494;-66
2021/08/18 04:41:18;;;;;;;7.38;3.30;;;;;;;15.43;88.40;101714.75;5030957;28;20069;-66
2021/08/18 04:43:44;;;;;;;8.15;3.67;;;;;;;15.46;88.65;101717.25;5029012;28;20105;-65
2021/08/18 04:46:09;;;;;;;6.35;3.17;;;;;;;15.44;88.84;101714.66;5012972;28;20042;-66
2021/08/18 04:48:35;;;;;;;6.00;3.00;;;;;;;15.45;88.80;101720.84;5011178;28;20018;-68
2021/08/18 04:51:02;;;;;;;6.80;3.55;;;;;;;15.48;88.89;101704.69;5010749;28;20490;-65
2021/08/18 04:53:28;;;;;;;8.15;3.28;;;;;;;15.51;88.62;101709.84;5025149;28;20026;-67
2021/08/18 04:55:54;;;;;;;6.85;2.90;;;;;;;15.53;88.80;101711.50;5027975;28;20116;-65
2021/08/18 04:58:19;;;;;;;9.60;3.55;;;;;;;15.53;88.71;101714.16;5028504;28;20121;-66
2021/08/18 05:00:44;;;;;;;8.15;3.38;;;;;;;15.54;88.87;101710.56;5029419;28;20032;-66
2021/08/18 05:03:14;;;;;;;7.38;3.28;;;;;;;15.56;88.50;101710.47;5026864;28;20499;-67
2021/08/18 05:05:40;;;;;;;10.27;3.72;;;;;;;15.57;88.76;101713.09;5027345;28;20882;-66
2021/08/18 05:08:06;;;;;;;8.02;3.80;;;;;;;15.54;88.92;101707.91;5024032;28;20043;-66
2021/08/18 05:10:35;;;;;;;6.45;3.35;;;;;;;15.59;88.48;101709.47;5031215;28;20045;-65
2021/08/18 05:13:01;;;;;;;6.53;3.60;;;;;;;15.60;88.29;101692.50;5030199;28;20120;-64
2021/08/18 05:15:27;;;;;;;5.70;3.40;;;;;;;15.61;88.72;101696.91;5048748;28;20112;-66
2021/08/18 05:17:53;;;;;;;7.10;3.20;;;;;;;15.66;88.32;101687.69;5028656;28;20428;-65
2021/08/18 05:20:18;;;;;;;10.00;4.28;;;;;;;15.66;88.37;101692.19;5028125;28;20017;-64
2021/08/18 05:22:45;;;;;;;6.30;3.90;;;;;;;15.70;88.63;101683.06;5026969;28;20029;-65
2021/08/18 05:25:12;;;;;;;9.07;4.75;;;;;;;15.74;88.52;101689.97;5028308;28;20345;-65
2021/08/18 05:27:38;;;;;;;13.38;4.97;;;;;;;15.78;88.16;101688.00;5027623;28;20136;-65
2021/08/18 05:30:05;;;;;;;11.05;4.10;;;;;;;15.79;88.19;101679.88;5024421;28;20171;-65
2021/08/18 05:32:30;;;;;;;5.50;3.30;;;;;;;15.82;87.93;101693.13;5012787;28;20018;-64
2021/08/18 05:34:55;;;;;;;7.40;3.90;;;;;;;15.82;87.51;101679.78;5031119;28;20051;-65
2021/08/18 05:37:21;;;;;;;8.15;3.72;;;;;;;15.83;87.60;101680.63;5026656;28;20050;-66
2021/08/18 05:39:46;;;;;;;8.77;3.53;;;;;;;15.85;87.24;101686.75;5023730;28;20467;-66
2021/08/18 05:42:11;;;;;;;10.18;4.00;;;;;;;15.86;87.86;101696.50;5018244;28;20157;-67
2021/08/18 05:44:37;;;;;;;9.02;3.72;;;;;;;15.86;87.72;101691.16;5012617;28;20091;-65
2021/08/18 05:47:02;;;;;;;7.80;4.05;;;;;;;15.89;87.80;101691.00;5016373;28;20212;-64
2021/08/18 05:49:27;;;;;;;9.23;4.28;;;;;;;15.91;87.53;101690.91;5038899;28;20331;-66
2021/08/18 05:51:53;;;;;;;9.38;3.97;;;;;;;15.96;87.45;101689.72;5024427;28;20041;-67
2021/08/18 05:54:18;;;;;;;8.50;3.88;;;;;;;15.97;87.14;101685.22;5028051;28;20051;-68
2021/08/18 05:56:44;;;;;;;11.40;3.97;;;;;;;16.00;86.55;101696.63;5018230;28;20421;-66
2021/08/18 05:59:09;;;;;;;7.35;4.25;;;;;;;16.02;86.41;101693.84;5028143;28;20083;-66
2021/08/18 06:01:34;;;;;;;9.23;4.15;;;;;;;16.08;86.44;101688.19;5026051;28;20029;-66
2021/08/18 06:04:00;;;;;;;9.30;4.00;;;;;;;16.12;86.16;101694.22;5026652;28;20026;-65
2021/08/18 06:06:25;;;;;;;10.68;3.90;;;;;;;16.14;86.32;101698.53;5025817;28;20029;-65
2021/08/18 06:08:50;;;;;;;8.88;3.65;;;;;;;16.13;86.04;101695.97;5018921;28;20130;-66
2021/08/18 06:11:16;;;;;;;9.15;3.97;;;;;;;16.15;86.47;101694.94;5047742;28;20049;-65
2021/08/18 06:13:41;;;;;;;7.43;3.85;;;;;;;16.20;86.13;101697.34;5037760;28;20056;-65
2021/08/18 06:16:06;;;;;;;8.85;3.58;;;;;;;16.27;85.63;101692.53;5025705;28;20033;-66
2021/08/18 06:18:32;;;;;;;6.82;3.58;;;;;;;16.30;85.93;101692.34;5027427;28;20083;-64
2021/08/18 06:20:57;;;;;;;6.47;3.40;;;;;;;16.32;85.74;101698.50;5025581;28;20120;-65
2021/08/18 06:23:25;;;;;;;6.75;3.72;;;;;;;16.36;85.79;101706.22;5031326;28;20395;-65
2021/08/18 06:25:52;;;;;;;9.80;4.00;;;;;;;16.38;85.60;101699.00;5011260;28;20078;-64
2021/08/18 06:28:18;;;;;;;9.45;3.92;;;;;;;16.41;85.32;101702.44;5026540;28;20192;-65
2021/08/18 06:30:43;;;;;;;9.55;3.72;;;;;;;16.45;85.30;101690.66;5008133;28;20108;-66
2021/08/18 06:33:09;;;;;;;7.40;3.53;;;;;;;16.50;84.61;101702.78;5010136;28;20034;-68
2021/08/18 06:35:34;;;;;;;7.20;3.83;;;;;;;16.48;84.58;101701.16;4995537;28;20456;-65
2021/08/18 06:37:59;;;;;;;8.80;4.05;;;;;;;16.53;84.69;101699.09;5020004;28;20091;-64
2021/08/18 06:40:25;;;;;;;8.10;4.40;;;;;;;16.57;85.22;101700.63;5031635;28;20029;-66
2021/08/18 06:42:50;;;;;;;10.43;4.03;;;;;;;16.59;84.86;101698.75;5013565;28;20200;-66
2021/08/18 06:45:17;;;;;;;8.90;3.90;;;;;;;16.63;84.79;101694.94;5012494;28;20026;-66
2021/08/18 06:47:43;;;;;;;11.25;4.20;;;;;;;16.66;84.70;101701.91;5013075;28;20059;-66
2021/08/18 06:50:09;;;;;;;10.60;4.78;;;;;;;16.68;84.61;101708.06;5012572;28;20026;-67
2021/08/18 06:52:34;;;;;;;13.32;4.72;;;;;;;16.67;84.76;101704.50;5013414;28;20041;-66
2021/08/18 06:55:00;;;;;;;12.55;4.20;;;;;;;16.74;85.05;101698.81;5012294;28;20022;-66
2021/08/18 06:57:25;;;;;;;8.95;4.65;;;;;;;16.76;84.53;101705.78;5012313;28;20026;-65
2021/08/18 06:59:50;;;;;;;9.68;4.28;;;;;;;16.83;84.46;101698.31;5014797;28;20060;-66
2021/08/18 07:02:15;;;;;;;10.63;4.65;;;;;;;16.89;84.24;101703.28;5013078;28;20180;-66
2021/08/18 07:04:41;;;;;;;8.57;4.72;;;;;;;17.02;84.33;101703.44;5012214;28;20113;-66
2021/08/18 07:07:06;;;;;;;8.63;4.38;;;;;;;17.13;84.24;101705.50;5011404;28;20104;-67
2021/08/18 07:09:31;;;;;;;8.30;5.28;;;;;;;17.26;83.66;101705.66;5022403;28;20040;-64
2021/08/18 07:11:57;;;;;;;7.78;4.40;;;;;;;17.36;83.56;101712.19;5031553;28;20049;-66
2021/08/18 07:14:22;;;;;;;9.68;4.55;;;;;;;17.38;81.89;101698.69;5030433;28;20033;-68
2021/08/18 07:16:47;;;;;;;6.80;4.22;;;;;;;17.43;81.92;101705.50;5031559;28;20423;-66
2021/08/18 07:19:13;;;;;;;8.90;4.10;;;;;;;17.52;81.67;101706.78;5030174;28;20120;-65
2021/08/18 07:21:38;;;;;;;7.35;4.18;;;;;;;17.53;81.55;101700.44;5031067;28;20067;-66
2021/08/18 07:24:03;;;;;;;9.77;4.35;;;;;;;17.62;81.25;101713.31;5029888;28;20037;-66
2021/08/18 07:26:29;;;;;;;6.85;4.20;;;;;;;17.66;80.30;101711.28;5031509;28;20111;-66
2021/08/18 07:28:56;;;;;;;7.63;4.50;;;;;;;17.72;80.14;101696.66;5031871;28;20086;-66
2021/08/18 07:31:21;;;;;;;6.72;4.20;;;;;;;17.78;79.79;101699.81;5030142;28;20037;-66
2021/08/18 07:33:47;;;;;;;7.43;4.32;;;;;;;17.81;79.82;101699.63;5029716;28;20389;-66
2021/08/18 07:36:12;;;;;;;9.40;4.53;;;;;;;17.84;79.96;101699.44;5030460;28;20042;-66
2021/08/18 07:38:37;;;;;;;7.05;4.53;;;;;;;17.91;80.20;101699.91;5031415;28;20013;-66
2021/08/18 07:41:03;;;;;;;6.32;4.20;;;;;;;17.94;79.19;101697.09;5029268;28;20048;-66
2021/08/18 07:43:28;;;;;;;7.72;4.50;;;;;;;18.01;79.26;101701.09;5031682;28;20087;-67
2021/08/18 07:45:54;;;;;;;8.73;4.75;;;;;;;18.00;78.86;101696.69;5029198;28;20109;-67
2021/08/18 07:48:19;;;;;;;9.15;4.70;;;;;;;17.99;79.06;101688.75;5030830;28;20039;-67
2021/08/18 07:50:44;;;;;;;7.45;4.70;;;;;;;18.11;78.71;101689.81;5028986;28;20026;-67
2021/08/18 07:53:10;;;;;;;7.13;4.72;;;;;;;18.26;78.49;101696.00;5030634;28;20123;-66
2021/08/18 07:55:35;;;;;;;7.40;4.70;;;;;;;18.30;78.20;101692.16;5030094;28;20329;-68
2021/08/18 07:58:00;;;;;;;7.03;4.97;;;;;;;18.33;77.22;101690.16;5031599;28;20486;-65
2021/08/18 08:00:26;;;;;;;8.63;5.20;;;;;;;18.42;77.53;101698.56;5029561;28;20113;-64
2021/08/18 08:02:51;;;;;;;8.13;5.30;;;;;;;18.40;76.01;101690.63;5031221;28;20052;-66
2021/08/18 08:05:17;;;;;;;10.98;5.45;;;;;;;18.38;76.79;101692.53;5030852;28;20163;-65
2021/08/18 08:07:43;;;;;;;8.75;5.30;;;;;;;18.40;76.52;101689.75;5029708;28;20036;-66
2021/08/18 08:10:10;;;;;;;10.77;5.70;;;;;;;18.37;78.23;101695.31;5031259;28;20146;-65
2021/08/18 08:12:37;;;;;;;7.53;5.03;;;;;;;18.39;76.77;101694.28;5029042;28;20187;-67
2021/08/18 08:15:04;;;;;;;10.35;5.30;;;;;;;18.41;77.06;101688.81;5016226;28;20037;-64
2021/08/18 08:17:30;;;;;;;10.77;5.40;;;;;;;18.38;76.76;101689.84;5012130;28;20109;-66
2021/08/18 08:19:55;;;;;;;8.93;6.07;;;;;;;18.26;77.15;101690.63;5010348;28;20042;-66
2021/08/18 08:22:20;;;;;;;9.38;6.05;;;;;;;18.07;77.63;101697.19;5011954;28;20069;-66
2021/08/18 08:24:46;;;;;;;12.75;6.72;;;;;;;17.98;78.16;101700.41;5010782;28;20057;-66
2021/08/18 08:27:12;;;;;;;11.43;6.07;;;;;;;17.94;78.77;101699.78;5012043;28;20109;-67
2021/08/18 08:29:38;;;;;;;9.45;5.85;;;;;;;17.96;79.16;101697.84;5011001;28;20116;-66
2021/08/18 08:32:04;;;;;;;10.30;6.88;;;;;;;17.91;79.08;101694.56;5012231;28;20056;-65
2021/08/18 08:34:29;;;;;;;12.63;7.55;;;;;;;17.75;80.56;101688.41;5010875;28;20034;-66
2021/08/18 08:36:54;;;;;;;12.27;7.75;;;;;;;17.77;81.28;101691.88;5011720;28;20045;-65
2021/08/18 08:39:20;;;;;;;13.15;7.20;;;;;;;17.84;80.85;101693.22;5011800;28;20034;-66
2021/08/18 08:41:45;;;;;;;15.80;8.75;;;;;;;17.81;80.71;101696.97;5012352;28;20056;-66
2021/08/18 08:44:22;;;;;;;12.35;7.50;;;;;;;17.91;80.34;101704.41;5011041;28;20137;-65
2021/08/18 08:46:50;;;;;;;10.57;7.30;;;;;;;17.89;80.56;101704.53;5011583;28;20192;-66
2021/08/18 08:49:16;;;;;;;13.85;7.53;;;;;;;17.79;81.33;101704.22;5011416;28;20026;-66
2021/08/18 08:51:44;;;;;;;11.15;8.00;;;;;;;17.77;82.01;101706.13;5023370;28;20460;-66
2021/08/18 08:54:09;;;;;;;12.95;8.02;;;;;;;17.68;82.15;101701.34;5029130;28;20044;-66
2021/08/18 08:56:35;;;;;;;13.18;8.25;;;;;;;17.59;82.77;101705.44;5030564;28;20428;-66
2021/08/18 08:59:00;;;;;;;16.13;9.10;;;;;;;17.48;82.98;101708.78;5029321;28;20375;-65
2021/08/18 09:01:25;;;;;;;12.55;8.63;;;;;;;17.51;83.75;101708.56;5030784;28;20529;-66
2021/08/18 09:03:50;;;;;;;16.70;7.68;;;;;;;17.66;82.49;101703.22;5028667;28;20456;-66
2021/08/18 09:06:21;;;;;;;15.55;8.50;;;;;;;17.84;81.42;101695.91;5016671;28;20076;-66
2021/08/18 09:08:49;;;;;;;18.38;9.32;;;;;;;17.93;81.29;101689.09;5010755;28;20030;-66
2021/08/18 09:11:15;;;;;;;14.00;8.35;;;;;;;18.15;79.00;101692.19;5011715;28;20489;-68
2021/08/18 09:13:53;;;;;;;12.30;7.40;;;;;;;18.21;78.44;101703.47;5013001;28;20037;-65
2021/08/18 09:16:33;;;;;;;15.50;8.02;;;;;;;18.30;79.74;101698.41;5012108;28;20038;-67
2021/08/18 09:18:59;;;;;;;11.88;7.90;;;;;;;18.36;78.40;101696.28;5011749;28;20109;-68
2021/08/18 09:21:35;;;;;;;14.07;7.72;;;;;;;18.46;77.82;101692.03;4995455;28;20041;-64
2021/08/18 09:24:16;;;;;;;12.27;7.20;;;;;;;18.64;77.37;101698.91;5012887;28;20026;-64
2021/08/18 09:26:56;;;;;;;13.15;7.38;;;;;;;18.78;75.01;101689.91;5015020;28;20060;-65
2021/08/18 09:29:41;;;;;;;12.67;7.03;;;;;;;18.91;77.33;101695.38;5017591;28;20026;-66
2021/08/18 09:32:26;;;;;;;12.65;7.18;;;;;;;19.12;73.97;101695.75;5022208;28;20295;-65
2021/08/18 09:34:53;;;;;;;8.85;5.65;;;;;;;19.15;73.02;101692.00;5029458;28;20029;-67
2021/08/18 09:37:19;;;;;;;8.48;5.80;;;;;;;19.09;72.37;101687.94;5030871;28;20546;-66
2021/08/18 09:39:45;;;;;;;9.95;5.28;;;;;;;19.06;71.79;101695.31;5030205;28;20100;-65
2021/08/18 09:42:26;;;;;;;13.63;5.90;;;;;;;18.95;74.22;101694.22;5029556;28;20383;-66
2021/08/18 09:45:09;;;;;;;9.57;5.53;;;;;;;18.79;73.73;101685.44;5029318;28;20079;-66
2021/08/18 09:47:35;;;;;;;11.27;5.38;;;;;;;18.51;74.38;101687.25;5030593;28;20439;-65
2021/08/18 09:50:00;;;;;;;12.35;5.20;;;;;;;18.44;74.01;101688.59;5031531;28;20096;-66
2021/08/18 09:52:26;;;;;;;15.93;5.53;;;;;;;18.41;75.62;101678.91;5029258;28;20501;-65
2021/08/18 09:54:51;;;;;;;11.00;5.50;;;;;;;18.46;75.18;101686.69;5026031;28;20057;-66
2021/08/18 09:57:29;;;;;;;14.07;5.32;;;;;;;18.63;74.13;101685.56;5010926;28;20456;-67
2021/08/18 09:59:56;;;;;;;11.65;5.00;;;;;;;18.83;74.18;101682.44;5008590;28;20038;-66
2021/08/18 10:02:21;;;;;;;12.38;5.32;;;;;;;19.29;73.14;101683.88;5009022;28;20038;-71
2021/08/18 10:04:47;;;;;;;6.88;4.72;;;;;;;19.43;71.65;101682.91;5009966;28;20057;-65
2021/08/18 10:07:13;;;;;;;11.68;5.10;;;;;;;19.27;70.40;101693.00;5018770;28;20017;-66
2021/08/18 10:09:38;;;;;;;8.13;4.47;;;;;;;19.27;69.66;101679.56;5021768;28;20022;-66
2021/08/18 10:12:05;;;;;;;9.50;4.50;;;;;;;19.40;69.98;101680.47;5022499;28;20075;-65
2021/08/18 10:14:33;;;;;;;9.65;5.28;;;;;;;19.34;71.05;101674.66;5023913;28;20036;-65
2021/08/18 10:16:58;;;;;;;9.35;5.18;;;;;;;19.37;69.96;101680.66;5027430;28;20038;-65
2021/08/18 10:19:23;;;;;;;9.63;5.00;;;;;;;19.39;70.40;101676.06;5013429;28;20030;-67
2021/08/18 10:21:49;;;;;;;9.00;5.00;;;;;;;19.69;69.04;101682.09;5012183;28;20026;-70
2021/08/18 10:24:38;;;;;;;8.60;4.72;;;;;;;19.86;67.19;101673.72;5029506;28;20033;-66
2021/08/18 10:27:05;;;;;;;8.80;4.45;;;;;;;19.67;68.61;101673.25;5029787;28;20030;-65
2021/08/18 10:29:32;;;;;;;9.13;4.55;;;;;;;19.71;67.92;101674.78;5026770;28;20029;-66
2021/08/18 10:32:06;;;;;;;7.40;4.20;;;;;;;19.66;66.78;101669.72;5013787;28;20132;-65
2021/08/18 10:34:45;;;;;;;10.30;4.28;;;;;;;19.49;68.14;101666.38;5032976;28;20033;-65
2021/08/18 10:37:15;;;;;;;8.95;4.30;;;;;;;19.45;67.93;101675.63;5026247;28;20018;-68
2021/08/18 10:39:51;;;;;;;9.65;4.40;;;;;;;19.46;67.28;101674.66;4994171;28;20368;-65
2021/08/18 10:42:25;;;;;;;7.05;3.95;;;;;;;19.48;67.91;101678.09;5020421;28;20131;-66
2021/08/18 10:44:52;;;;;;;6.22;3.80;;;;;;;19.63;68.15;101675.31;5021189;28;20569;-66
2021/08/18 10:47:27;;;;;;;7.15;3.40;;;;;;;19.93;67.05;101675.00;5022505;28;20034;-66
2021/08/18 10:49:54;;;;;;;8.52;3.45;;;;;;;20.24;64.09;101674.63;5031760;28;20029;-67
2021/08/18 10:52:28;;;;;;;7.20;3.70;;;;;;;20.51;63.14;101676.25;5028797;28;20033;-67
2021/08/18 10:55:17;;;;;;;8.82;3.85;;;;;;;21.05;61.69;101673.13;5017333;28;20033;-67
2021/08/18 10:57:49;;;;;;;7.88;3.80;;;;;;;20.99;61.75;101675.44;5015720;28;20033;-67
2021/08/18 11:00:22;;;;;;;10.27;3.78;;;;;;;20.73;62.03;101676.41;5012691;28;20030;-67
2021/08/18 11:02:57;;;;;;;6.55;3.80;;;;;;;20.56;62.66;101668.69;5022132;28;20072;-68
2021/08/18 11:05:24;;;;;;;8.80;3.83;;;;;;;20.45;63.19;101675.75;5031445;28;20053;-71
2021/08/18 11:08:03;;;;;;;6.93;3.10;;;;;;;20.93;60.77;101672.25;5024742;28;20030;-66
2021/08/18 11:10:55;;;;;;;7.00;3.50;;;;;;;21.07;60.23;101667.63;5030879;28;20506;-66
2021/08/18 11:13:47;;;;;;;8.98;3.95;;;;;;;20.75;63.64;101665.53;4973455;28;20046;-67
2021/08/18 11:16:32;;;;;;;4.88;3.38;;;;;;;20.78;61.25;101662.59;4972840;28;20031;-65
2021/08/18 11:19:06;;;;;;;9.70;3.85;;;;;;;20.52;62.79;101662.69;4972653;28;20049;-66
2021/08/18 11:21:35;;;;;;;7.50;3.90;;;;;;;20.78;62.05;101662.59;4972939;28;20062;-66
2021/08/18 11:24:08;;;;;;;6.68;3.60;;;;;;;20.59;62.90;101655.88;4974178;28;20070;-65